sensor_id;sensor_type;location;lat;lon;timestamp;pressure;altitude;pressure_sealevel;temperature;humidity
39487;BME280;25173;50.430;18.926;2023-05-23T00:00:23;97995.72;;;15.76;50.24
39487;BME280;25173;50.430;18.926;2023-05-23T00:03:24;97997.94;;;15.74;50.46
39487;BME280;25173;50.430;18.926;2023-05-23T00:06:44;97990.31;;;15.71;50.42
39487;BME280;25173;50.430;18.926;2023-05-23T00:10:05;97985.47;;;15.68;50.61
39487;BME280;25173;50.430;18.926;2023-05-23T00:13:24;97984.03;;;15.71;50.57
39487;BME280;25173;50.430;18.926;2023-05-23T00:16:44;97976.09;;;15.69;50.74
39487;BME280;25173;50.430;18.926;2023-05-23T00:20:08;97973.38;;;15.69;50.68
39487;BME280;25173;50.430;18.926;2023-05-23T00:23:29;97976.91;;;15.70;50.57
39487;BME280;25173;50.430;18.926;2023-05-23T00:26:48;97970.94;;;15.68;50.78
39487;BME280;25173;50.430;18.926;2023-05-23T00:29:48;97965.75;;;15.66;50.91
39487;BME280;25173;50.430;18.926;2023-05-23T00:32:49;97969.59;;;15.65;50.87
39487;BME280;25173;50.430;18.926;2023-05-23T00:35:49;97967.50;;;15.62;50.86
39487;BME280;25173;50.430;18.926;2023-05-23T00:38:50;97967.00;;;15.60;51.02
39487;BME280;25173;50.430;18.926;2023-05-23T00:41:52;97966.47;;;15.58;51.13
39487;BME280;25173;50.430;18.926;2023-05-23T00:44:53;97968.25;;;15.54;51.16
39487;BME280;25173;50.430;18.926;2023-05-23T00:47:54;97975.94;;;15.52;51.22
39487;BME280;25173;50.430;18.926;2023-05-23T00:50:55;97974.31;;;15.51;51.48
39487;BME280;25173;50.430;18.926;2023-05-23T00:54:17;97978.16;;;15.50;51.39
39487;BME280;25173;50.430;18.926;2023-05-23T00:57:39;97973.31;;;15.47;51.17
39487;BME280;25173;50.430;18.926;2023-05-23T01:00:59;97957.75;;;15.42;51.26
39487;BME280;25173;50.430;18.926;2023-05-23T01:04:19;97955.97;;;15.38;51.42
39487;BME280;25173;50.430;18.926;2023-05-23T01:07:57;97956.91;;;15.33;51.38
39487;BME280;25173;50.430;18.926;2023-05-23T01:11:00;97960.56;;;15.29;51.54
39487;BME280;25173;50.430;18.926;2023-05-23T01:14:10;97955.19;;;15.24;51.91
39487;BME280;25173;50.430;18.926;2023-05-23T01:17:16;97949.84;;;15.19;51.82
39487;BME280;25173;50.430;18.926;2023-05-23T01:20:25;97959.47;;;15.16;51.94
39487;BME280;25173;50.430;18.926;2023-05-23T01:27:42;97953.31;;;15.10;53.11
39487;BME280;25173;50.430;18.926;2023-05-23T01:31:07;97959.22;;;15.04;52.13
39487;BME280;25173;50.430;18.926;2023-05-23T01:34:29;97951.59;;;15.01;52.09
39487;BME280;25173;50.430;18.926;2023-05-23T01:37:54;97953.00;;;14.98;52.28
39487;BME280;25173;50.430;18.926;2023-05-23T01:41:14;97953.13;;;14.93;52.39
39487;BME280;25173;50.430;18.926;2023-05-23T01:44:33;97957.63;;;14.89;52.62
39487;BME280;25173;50.430;18.926;2023-05-23T01:47:35;97950.28;;;14.85;52.66
39487;BME280;25173;50.430;18.926;2023-05-23T01:50:37;97944.13;;;14.79;52.37
39487;BME280;25173;50.430;18.926;2023-05-23T01:53:39;97941.16;;;14.75;52.41
39487;BME280;25173;50.430;18.926;2023-05-23T01:56:40;97942.91;;;14.71;52.41
39487;BME280;25173;50.430;18.926;2023-05-23T01:59:42;97938.94;;;14.64;52.82
39487;BME280;25173;50.430;18.926;2023-05-23T02:02:43;97938.56;;;14.57;53.10
39487;BME280;25173;50.430;18.926;2023-05-23T02:05:44;97942.81;;;14.49;53.15
39487;BME280;25173;50.430;18.926;2023-05-23T02:08:44;97931.44;;;14.42;53.33
39487;BME280;25173;50.430;18.926;2023-05-23T02:12:03;97945.53;;;14.35;53.39
39487;BME280;25173;50.430;18.926;2023-05-23T02:15:23;97936.28;;;14.31;53.53
39487;BME280;25173;50.430;18.926;2023-05-23T02:18:41;97932.31;;;14.24;53.69
39487;BME280;25173;50.430;18.926;2023-05-23T02:22:04;97940.63;;;14.19;53.74
39487;BME280;25173;50.430;18.926;2023-05-23T02:25:23;97937.38;;;14.17;53.69
39487;BME280;25173;50.430;18.926;2023-05-23T02:28:42;97939.94;;;14.13;53.75
39487;BME280;25173;50.430;18.926;2023-05-23T02:32:02;97936.16;;;14.09;53.84
39487;BME280;25173;50.430;18.926;2023-05-23T02:35:21;97935.16;;;14.05;54.05
39487;BME280;25173;50.430;18.926;2023-05-23T02:38:40;97935.44;;;14.04;54.21
39487;BME280;25173;50.430;18.926;2023-05-23T02:41:59;97940.09;;;14.03;54.16
39487;BME280;25173;50.430;18.926;2023-05-23T02:45:19;97941.22;;;14.02;54.06
39487;BME280;25173;50.430;18.926;2023-05-23T02:48:44;97934.91;;;14.02;54.40
39487;BME280;25173;50.430;18.926;2023-05-23T02:51:45;97934.22;;;13.96;54.14
39487;BME280;25173;50.430;18.926;2023-05-23T02:54:46;97930.94;;;13.94;54.29
39487;BME280;25173;50.430;18.926;2023-05-23T02:57:47;97922.75;;;13.94;54.38
39487;BME280;25173;50.430;18.926;2023-05-23T03:00:47;97921.13;;;13.93;54.36
39487;BME280;25173;50.430;18.926;2023-05-23T03:03:48;97920.81;;;13.94;54.30
39487;BME280;25173;50.430;18.926;2023-05-23T03:06:49;97919.41;;;13.97;54.52
39487;BME280;25173;50.430;18.926;2023-05-23T03:09:53;97916.56;;;14.02;54.26
39487;BME280;25173;50.430;18.926;2023-05-23T03:12:54;97912.72;;;14.03;54.41
39487;BME280;25173;50.430;18.926;2023-05-23T03:15:54;97913.00;;;14.02;54.39
39487;BME280;25173;50.430;18.926;2023-05-23T03:18:55;97913.63;;;13.98;54.37
39487;BME280;25173;50.430;18.926;2023-05-23T03:21:59;97910.91;;;13.98;54.87
39487;BME280;25173;50.430;18.926;2023-05-23T03:25:11;97907.88;;;14.00;54.92
39487;BME280;25173;50.430;18.926;2023-05-23T03:28:24;97912.13;;;14.06;54.77
39487;BME280;25173;50.430;18.926;2023-05-23T03:31:25;97905.44;;;14.12;54.96
39487;BME280;25173;50.430;18.926;2023-05-23T03:34:29;97898.53;;;14.15;54.87
39487;BME280;25173;50.430;18.926;2023-05-23T03:37:35;97897.31;;;14.21;55.00
39487;BME280;25173;50.430;18.926;2023-05-23T03:40:47;97902.28;;;14.32;54.85
39487;BME280;25173;50.430;18.926;2023-05-23T03:43:52;97901.00;;;14.44;54.83
39487;BME280;25173;50.430;18.926;2023-05-23T03:46:55;97900.28;;;14.52;54.52
39487;BME280;25173;50.430;18.926;2023-05-23T03:49:55;97904.25;;;14.59;54.46
39487;BME280;25173;50.430;18.926;2023-05-23T03:52:56;97900.47;;;14.69;54.41
39487;BME280;25173;50.430;18.926;2023-05-23T03:55:57;97903.59;;;14.76;54.38
39487;BME280;25173;50.430;18.926;2023-05-23T03:58:59;97897.69;;;14.83;54.50
39487;BME280;25173;50.430;18.926;2023-05-23T04:02:01;97898.59;;;14.92;54.49
39487;BME280;25173;50.430;18.926;2023-05-23T04:05:01;97897.56;;;15.01;54.41
39487;BME280;25173;50.430;18.926;2023-05-23T04:08:02;97901.78;;;15.07;54.48
39487;BME280;25173;50.430;18.926;2023-05-23T04:11:04;97899.44;;;15.14;54.42
39487;BME280;25173;50.430;18.926;2023-05-23T04:14:09;97899.81;;;15.22;54.14
39487;BME280;25173;50.430;18.926;2023-05-23T04:17:29;97903.25;;;15.27;53.92
39487;BME280;25173;50.430;18.926;2023-05-23T04:20:49;97897.00;;;15.35;53.98
39487;BME280;25173;50.430;18.926;2023-05-23T04:24:08;97900.50;;;15.49;53.71
39487;BME280;25173;50.430;18.926;2023-05-23T04:27:28;97903.03;;;15.60;53.80
39487;BME280;25173;50.430;18.926;2023-05-23T04:30:47;97896.97;;;15.71;53.69
39487;BME280;25173;50.430;18.926;2023-05-23T04:34:09;97897.53;;;15.82;53.29
39487;BME280;25173;50.430;18.926;2023-05-23T04:37:31;97896.75;;;15.90;53.24
39487;BME280;25173;50.430;18.926;2023-05-23T04:40:52;97891.94;;;15.96;53.42
39487;BME280;25173;50.430;18.926;2023-05-23T04:44:30;97894.41;;;16.06;53.70
39487;BME280;25173;50.430;18.926;2023-05-23T04:48:06;97892.38;;;16.20;53.79
39487;BME280;25173;50.430;18.926;2023-05-23T04:51:33;97883.72;;;16.35;53.69
39487;BME280;25173;50.430;18.926;2023-05-23T04:55:03;97880.53;;;16.50;53.34
39487;BME280;25173;50.430;18.926;2023-05-23T04:58:23;97877.34;;;16.65;53.22
39487;BME280;25173;50.430;18.926;2023-05-23T05:01:46;97873.97;;;16.77;52.88
39487;BME280;25173;50.430;18.926;2023-05-23T05:05:06;97872.69;;;16.92;52.96
39487;BME280;25173;50.430;18.926;2023-05-23T05:08:26;97879.03;;;17.10;52.95
39487;BME280;25173;50.430;18.926;2023-05-23T05:11:45;97876.25;;;17.27;53.04
39487;BME280;25173;50.430;18.926;2023-05-23T05:15:04;97877.06;;;17.44;53.02
39487;BME280;25173;50.430;18.926;2023-05-23T05:18:27;97873.19;;;17.63;52.95
39487;BME280;25173;50.430;18.926;2023-05-23T05:21:48;97866.81;;;17.79;52.45
39487;BME280;25173;50.430;18.926;2023-05-23T05:25:09;97865.63;;;17.98;52.46
39487;BME280;25173;50.430;18.926;2023-05-23T05:28:28;97870.41;;;18.18;52.54
39487;BME280;25173;50.430;18.926;2023-05-23T05:31:29;97866.78;;;18.35;52.54
39487;BME280;25173;50.430;18.926;2023-05-23T05:34:30;97874.63;;;18.53;52.04
39487;BME280;25173;50.430;18.926;2023-05-23T05:37:31;97870.19;;;18.70;51.76
39487;BME280;25173;50.430;18.926;2023-05-23T05:40:32;97870.41;;;18.85;51.56
39487;BME280;25173;50.430;18.926;2023-05-23T05:43:33;97870.63;;;19.01;51.56
39487;BME280;25173;50.430;18.926;2023-05-23T05:46:34;97870.81;;;19.17;51.32
39487;BME280;25173;50.430;18.926;2023-05-23T05:49:53;97865.69;;;19.27;51.10
39487;BME280;25173;50.430;18.926;2023-05-23T05:53:12;97853.31;;;19.33;51.11
39487;BME280;25173;50.430;18.926;2023-05-23T05:56:32;97859.22;;;19.44;51.13
39487;BME280;25173;50.430;18.926;2023-05-23T05:59:51;97864.22;;;19.51;50.63
39487;BME280;25173;50.430;18.926;2023-05-23T06:03:11;97863.00;;;19.60;50.53
39487;BME280;25173;50.430;18.926;2023-05-23T06:06:45;97861.88;;;19.73;49.88
39487;BME280;25173;50.430;18.926;2023-05-23T06:09:46;97857.53;;;19.85;49.91
39487;BME280;25173;50.430;18.926;2023-05-23T06:12:46;97852.94;;;19.89;49.63
39487;BME280;25173;50.430;18.926;2023-05-23T06:15:47;97848.22;;;19.89;49.52
39487;BME280;25173;50.430;18.926;2023-05-23T06:18:48;97844.78;;;19.92;49.97
39487;BME280;25173;50.430;18.926;2023-05-23T06:21:49;97847.41;;;20.01;49.23
39487;BME280;25173;50.430;18.926;2023-05-23T06:24:50;97839.38;;;20.08;49.25
39487;BME280;25173;50.430;18.926;2023-05-23T06:28:09;97842.97;;;20.21;48.85
39487;BME280;25173;50.430;18.926;2023-05-23T06:31:28;97856.22;;;20.39;49.14
39487;BME280;25173;50.430;18.926;2023-05-23T06:34:48;97844.03;;;20.52;48.40
39487;BME280;25173;50.430;18.926;2023-05-23T06:38:07;97847.69;;;20.69;48.77
39487;BME280;25173;50.430;18.926;2023-05-23T06:41:26;97847.69;;;20.81;48.48
39487;BME280;25173;50.430;18.926;2023-05-23T06:44:46;97841.44;;;20.96;48.24
39487;BME280;25173;50.430;18.926;2023-05-23T06:47:46;97840.69;;;21.11;48.66
39487;BME280;25173;50.430;18.926;2023-05-23T06:50:48;97843.44;;;21.23;48.08
39487;BME280;25173;50.430;18.926;2023-05-23T06:53:49;97837.03;;;21.35;47.38
39487;BME280;25173;50.430;18.926;2023-05-23T06:56:50;97833.53;;;21.50;47.64
39487;BME280;25173;50.430;18.926;2023-05-23T06:59:51;97834.72;;;21.65;47.99
39487;BME280;25173;50.430;18.926;2023-05-23T07:02:52;97827.97;;;21.78;47.86
39487;BME280;25173;50.430;18.926;2023-05-23T07:05:55;97829.16;;;21.93;48.09
39487;BME280;25173;50.430;18.926;2023-05-23T07:08:56;97826.38;;;22.08;47.35
39487;BME280;25173;50.430;18.926;2023-05-23T07:11:59;97824.53;;;22.28;47.04
39487;BME280;25173;50.430;18.926;2023-05-23T07:15:00;97827.81;;;22.50;46.77
39487;BME280;25173;50.430;18.926;2023-05-23T07:18:03;97819.63;;;22.72;46.79
39487;BME280;25173;50.430;18.926;2023-05-23T07:21:06;97819.59;;;22.88;46.56
39487;BME280;25173;50.430;18.926;2023-05-23T07:24:07;97811.94;;;23.01;46.25
39487;BME280;25173;50.430;18.926;2023-05-23T07:27:07;97815.03;;;23.15;45.69
39487;BME280;25173;50.430;18.926;2023-05-23T07:30:11;97811.81;;;23.32;45.79
39487;BME280;25173;50.430;18.926;2023-05-23T07:33:12;97809.19;;;23.39;45.38
39487;BME280;25173;50.430;18.926;2023-05-23T07:36:14;97812.00;;;23.43;45.77
39487;BME280;25173;50.430;18.926;2023-05-23T07:39:16;97811.28;;;23.46;45.98
39487;BME280;25173;50.430;18.926;2023-05-23T07:42:21;97816.03;;;23.45;45.40
39487;BME280;25173;50.430;18.926;2023-05-23T07:45:22;97818.47;;;23.47;45.66
39487;BME280;25173;50.430;18.926;2023-05-23T07:48:23;97819.63;;;23.65;45.55
39487;BME280;25173;50.430;18.926;2023-05-23T07:51:26;97822.31;;;23.81;45.23
39487;BME280;25173;50.430;18.926;2023-05-23T07:54:27;97818.84;;;23.87;45.22
39487;BME280;25173;50.430;18.926;2023-05-23T07:57:32;97811.31;;;23.88;44.51
39487;BME280;25173;50.430;18.926;2023-05-23T08:00:33;97801.13;;;23.95;44.72
39487;BME280;25173;50.430;18.926;2023-05-23T08:03:43;97798.09;;;24.04;44.59
39487;BME280;25173;50.430;18.926;2023-05-23T08:06:52;97803.53;;;23.97;44.52
39487;BME280;25173;50.430;18.926;2023-05-23T08:09:55;97798.28;;;23.92;44.46
39487;BME280;25173;50.430;18.926;2023-05-23T08:12:58;97797.97;;;23.97;44.45
39487;BME280;25173;50.430;18.926;2023-05-23T08:16:04;97804.47;;;24.05;44.10
39487;BME280;25173;50.430;18.926;2023-05-23T08:19:05;97802.47;;;24.05;43.97
39487;BME280;25173;50.430;18.926;2023-05-23T08:22:07;97795.31;;;24.04;44.37
39487;BME280;25173;50.430;18.926;2023-05-23T08:25:08;97791.66;;;24.00;44.38
39487;BME280;25173;50.430;18.926;2023-05-23T08:28:11;97788.00;;;23.96;44.85
39487;BME280;25173;50.430;18.926;2023-05-23T08:31:30;97792.75;;;23.95;44.86
39487;BME280;25173;50.430;18.926;2023-05-23T08:34:31;97782.81;;;23.94;43.93
39487;BME280;25173;50.430;18.926;2023-05-23T08:37:51;97790.06;;;23.99;44.39
39487;BME280;25173;50.430;18.926;2023-05-23T08:41:21;97789.84;;;24.11;44.86
39487;BME280;25173;50.430;18.926;2023-05-23T08:44:43;97782.53;;;24.22;44.21
39487;BME280;25173;50.430;18.926;2023-05-23T08:48:07;97788.38;;;24.40;44.55
39487;BME280;25173;50.430;18.926;2023-05-23T08:51:34;97778.94;;;24.48;44.24
39487;BME280;25173;50.430;18.926;2023-05-23T08:54:42;97776.63;;;24.54;44.28
39487;BME280;25173;50.430;18.926;2023-05-23T08:57:44;97779.13;;;24.59;44.33
39487;BME280;25173;50.430;18.926;2023-05-23T09:01:01;97784.81;;;24.69;44.58
39487;BME280;25173;50.430;18.926;2023-05-23T09:04:05;97773.78;;;24.76;43.05
39487;BME280;25173;50.430;18.926;2023-05-23T09:07:17;97787.88;;;24.87;43.39
39487;BME280;25173;50.430;18.926;2023-05-23T09:10:19;97775.13;;;24.86;43.67
39487;BME280;25173;50.430;18.926;2023-05-23T09:13:20;97778.47;;;24.95;43.50
39487;BME280;25173;50.430;18.926;2023-05-23T09:16:31;97779.09;;;25.11;43.26
39487;BME280;25173;50.430;18.926;2023-05-23T09:19:32;97778.84;;;25.27;43.85
39487;BME280;25173;50.430;18.926;2023-05-23T09:22:45;97769.91;;;25.44;43.23
39487;BME280;25173;50.430;18.926;2023-05-23T09:25:49;97774.09;;;25.61;42.95
39487;BME280;25173;50.430;18.926;2023-05-23T09:28:50;97779.81;;;25.75;42.94
39487;BME280;25173;50.430;18.926;2023-05-23T09:31:59;97774.34;;;25.86;41.49
39487;BME280;25173;50.430;18.926;2023-05-23T09:35:09;97778.03;;;25.94;41.69
39487;BME280;25173;50.430;18.926;2023-05-23T09:38:13;97781.66;;;26.01;41.16
39487;BME280;25173;50.430;18.926;2023-05-23T09:41:14;97775.78;;;26.13;40.51
39487;BME280;25173;50.430;18.926;2023-05-23T09:44:21;97771.44;;;26.19;38.83
39487;BME280;25173;50.430;18.926;2023-05-23T09:47:22;97773.13;;;26.27;40.33
39487;BME280;25173;50.430;18.926;2023-05-23T09:50:30;97768.47;;;26.42;40.43
39487;BME280;25173;50.430;18.926;2023-05-23T09:53:32;97777.00;;;26.63;40.97
39487;BME280;25173;50.430;18.926;2023-05-23T09:56:35;97766.31;;;26.80;39.88
39487;BME280;25173;50.430;18.926;2023-05-23T09:59:40;97762.81;;;26.93;39.03
39487;BME280;25173;50.430;18.926;2023-05-23T10:06:04;97755.38;;;27.29;38.77
39487;BME280;25173;50.430;18.926;2023-05-23T10:09:12;97742.63;;;27.42;38.31
39487;BME280;25173;50.430;18.926;2023-05-23T10:12:46;97751.50;;;27.62;38.44
39487;BME280;25173;50.430;18.926;2023-05-23T10:15:50;97757.13;;;27.80;38.88
39487;BME280;25173;50.430;18.926;2023-05-23T10:18:55;97753.94;;;27.96;37.59
39487;BME280;25173;50.430;18.926;2023-05-23T10:22:03;97753.97;;;28.06;37.79
39487;BME280;25173;50.430;18.926;2023-05-23T10:25:04;97744.38;;;28.18;36.79
39487;BME280;25173;50.430;18.926;2023-05-23T10:28:06;97744.41;;;28.22;37.74
39487;BME280;25173;50.430;18.926;2023-05-23T10:31:07;97743.56;;;28.25;36.41
39487;BME280;25173;50.430;18.926;2023-05-23T10:34:16;97737.19;;;28.35;36.43
39487;BME280;25173;50.430;18.926;2023-05-23T10:37:48;97739.16;;;28.41;35.03
39487;BME280;25173;50.430;18.926;2023-05-23T10:44:20;97729.13;;;28.58;35.80
39487;BME280;25173;50.430;18.926;2023-05-23T10:47:25;97735.50;;;28.69;35.50
39487;BME280;25173;50.430;18.926;2023-05-23T10:50:33;97741.53;;;28.78;36.49
39487;BME280;25173;50.430;18.926;2023-05-23T10:53:38;97731.88;;;28.93;37.27
39487;BME280;25173;50.430;18.926;2023-05-23T10:56:39;97736.25;;;29.02;36.08
39487;BME280;25173;50.430;18.926;2023-05-23T10:59:40;97732.53;;;29.22;36.41
39487;BME280;25173;50.430;18.926;2023-05-23T11:02:58;97734.41;;;29.50;34.35
39487;BME280;25173;50.430;18.926;2023-05-23T11:06:00;97727.91;;;29.67;34.60
39487;BME280;25173;50.430;18.926;2023-05-23T11:09:08;97731.38;;;29.93;33.83
39487;BME280;25173;50.430;18.926;2023-05-23T11:12:09;97729.56;;;30.17;33.32
39487;BME280;25173;50.430;18.926;2023-05-23T11:18:26;97724.69;;;30.24;33.37
39487;BME280;25173;50.430;18.926;2023-05-23T11:21:28;97719.28;;;30.44;32.78
39487;BME280;25173;50.430;18.926;2023-05-23T11:27:49;97705.97;;;30.89;33.05
39487;BME280;25173;50.430;18.926;2023-05-23T11:30:49;97705.69;;;31.14;33.49
39487;BME280;25173;50.430;18.926;2023-05-23T11:33:50;97695.41;;;31.31;33.83
39487;BME280;25173;50.430;18.926;2023-05-23T11:36:53;97707.66;;;31.47;32.17
39487;BME280;25173;50.430;18.926;2023-05-23T11:39:54;97697.28;;;31.41;32.12
39487;BME280;25173;50.430;18.926;2023-05-23T11:42:54;97692.72;;;31.50;32.17
39487;BME280;25173;50.430;18.926;2023-05-23T11:45:55;97702.13;;;31.40;31.23
39487;BME280;25173;50.430;18.926;2023-05-23T11:48:56;97689.47;;;31.25;31.54
39487;BME280;25173;50.430;18.926;2023-05-23T11:51:57;97695.03;;;31.29;31.98
39487;BME280;25173;50.430;18.926;2023-05-23T11:55:00;97696.72;;;31.22;31.59
39487;BME280;25173;50.430;18.926;2023-05-23T11:58:00;97703.03;;;31.00;31.16
39487;BME280;25173;50.430;18.926;2023-05-23T12:01:08;97703.69;;;30.77;31.54
39487;BME280;25173;50.430;18.926;2023-05-23T12:04:28;97706.22;;;30.68;32.01
39487;BME280;25173;50.430;18.926;2023-05-23T12:07:48;97712.38;;;30.56;31.58
39487;BME280;25173;50.430;18.926;2023-05-23T12:11:07;97716.63;;;30.26;32.30
39487;BME280;25173;50.430;18.926;2023-05-23T12:14:27;97730.56;;;29.89;33.26
39487;BME280;25173;50.430;18.926;2023-05-23T12:17:46;97761.13;;;28.71;34.50
39487;BME280;25173;50.430;18.926;2023-05-23T12:21:06;97763.78;;;27.26;37.05
39487;BME280;25173;50.430;18.926;2023-05-23T12:24:17;97757.50;;;26.19;38.48
39487;BME280;25173;50.430;18.926;2023-05-23T12:27:18;97768.28;;;25.43;40.22
39487;BME280;25173;50.430;18.926;2023-05-23T12:30:19;97781.78;;;24.78;41.39
39487;BME280;25173;50.430;18.926;2023-05-23T12:33:19;97777.56;;;24.12;42.91
39487;BME280;25173;50.430;18.926;2023-05-23T12:36:23;97779.25;;;23.52;44.93
39487;BME280;25173;50.430;18.926;2023-05-23T12:39:28;97777.94;;;23.07;46.07
39487;BME280;25173;50.430;18.926;2023-05-23T12:42:28;97779.50;;;22.70;46.93
39487;BME280;25173;50.430;18.926;2023-05-23T12:45:30;97786.47;;;22.29;48.85
39487;BME280;25173;50.430;18.926;2023-05-23T12:48:35;97786.38;;;21.78;50.73
39487;BME280;25173;50.430;18.926;2023-05-23T12:51:35;97788.72;;;21.33;54.13
39487;BME280;25173;50.430;18.926;2023-05-23T12:54:36;97789.22;;;20.70;57.00
39487;BME280;25173;50.430;18.926;2023-05-23T12:57:36;97796.75;;;20.21;58.34
39487;BME280;25173;50.430;18.926;2023-05-23T13:00:37;97781.03;;;19.64;62.27
39487;BME280;25173;50.430;18.926;2023-05-23T13:03:38;97792.72;;;19.16;64.01
39487;BME280;25173;50.430;18.926;2023-05-23T13:06:58;97776.66;;;18.56;66.73
39487;BME280;25173;50.430;18.926;2023-05-23T13:10:17;97770.03;;;18.19;68.04
39487;BME280;25173;50.430;18.926;2023-05-23T13:13:18;97774.38;;;17.99;69.27
39487;BME280;25173;50.430;18.926;2023-05-23T13:16:19;97766.91;;;18.00;70.11
39487;BME280;25173;50.430;18.926;2023-05-23T13:19:19;97765.81;;;17.92;71.39
39487;BME280;25173;50.430;18.926;2023-05-23T13:22:20;97757.28;;;17.85;72.35
39487;BME280;25173;50.430;18.926;2023-05-23T13:25:21;97743.84;;;17.75;74.01
39487;BME280;25173;50.430;18.926;2023-05-23T13:28:21;97730.56;;;17.77;73.91
39487;BME280;25173;50.430;18.926;2023-05-23T13:31:22;97731.41;;;17.98;74.22
39487;BME280;25173;50.430;18.926;2023-05-23T13:34:22;97730.75;;;18.01;74.82
39487;BME280;25173;50.430;18.926;2023-05-23T13:37:23;97723.81;;;17.95;75.45
39487;BME280;25173;50.430;18.926;2023-05-23T13:40:24;97725.22;;;18.01;75.21
39487;BME280;25173;50.430;18.926;2023-05-23T13:43:24;97729.56;;;18.32;76.11
39487;BME280;25173;50.430;18.926;2023-05-23T13:46:25;97725.31;;;18.64;76.24
39487;BME280;25173;50.430;18.926;2023-05-23T13:49:26;97717.84;;;18.97;75.98
39487;BME280;25173;50.430;18.926;2023-05-23T13:52:45;97721.69;;;19.05;75.29
39487;BME280;25173;50.430;18.926;2023-05-23T13:56:04;97716.31;;;19.08;74.77
39487;BME280;25173;50.430;18.926;2023-05-23T13:59:25;97720.13;;;19.16;75.94
39487;BME280;25173;50.430;18.926;2023-05-23T14:02:26;97727.78;;;19.43;77.02
39487;BME280;25173;50.430;18.926;2023-05-23T14:05:26;97721.75;;;19.62;75.98
39487;BME280;25173;50.430;18.926;2023-05-23T14:08:27;97720.03;;;19.69;75.51
39487;BME280;25173;50.430;18.926;2023-05-23T14:11:28;97721.41;;;19.88;76.20
39487;BME280;25173;50.430;18.926;2023-05-23T14:14:29;97733.84;;;20.06;76.17
39487;BME280;25173;50.430;18.926;2023-05-23T14:17:49;97739.28;;;20.14;74.82
39487;BME280;25173;50.430;18.926;2023-05-23T14:20:54;97735.81;;;20.05;74.58
39487;BME280;25173;50.430;18.926;2023-05-23T14:23:55;97729.25;;;19.98;74.42
39487;BME280;25173;50.430;18.926;2023-05-23T14:26:55;97733.41;;;19.92;73.91
39487;BME280;25173;50.430;18.926;2023-05-23T14:29:56;97727.28;;;19.86;73.75
39487;BME280;25173;50.430;18.926;2023-05-23T14:32:57;97729.00;;;19.91;74.17
39487;BME280;25173;50.430;18.926;2023-05-23T14:35:58;97728.31;;;19.94;73.09
39487;BME280;25173;50.430;18.926;2023-05-23T14:38:58;97724.16;;;19.88;73.65
39487;BME280;25173;50.430;18.926;2023-05-23T14:42:00;97723.72;;;19.98;74.07
39487;BME280;25173;50.430;18.926;2023-05-23T14:45:02;97729.91;;;20.19;74.64
39487;BME280;25173;50.430;18.926;2023-05-23T14:48:04;97732.34;;;20.21;73.93
39487;BME280;25173;50.430;18.926;2023-05-23T14:51:05;97720.81;;;20.19;73.61
39487;BME280;25173;50.430;18.926;2023-05-23T14:54:06;97713.09;;;20.36;74.48
39487;BME280;25173;50.430;18.926;2023-05-23T14:57:25;97709.44;;;20.60;73.72
39487;BME280;25173;50.430;18.926;2023-05-23T15:00:26;97713.75;;;20.85;73.26
39487;BME280;25173;50.430;18.926;2023-05-23T15:03:27;97711.22;;;21.08;72.55
39487;BME280;25173;50.430;18.926;2023-05-23T15:06:27;97711.84;;;21.29;71.81
39487;BME280;25173;50.430;18.926;2023-05-23T15:09:31;97708.03;;;21.65;73.92
39487;BME280;25173;50.430;18.926;2023-05-23T15:12:31;97699.88;;;22.20;74.54
39487;BME280;25173;50.430;18.926;2023-05-23T15:15:32;97709.19;;;22.81;73.38
39487;BME280;25173;50.430;18.926;2023-05-23T15:18:36;97715.00;;;23.34;71.86
39487;BME280;25173;50.430;18.926;2023-05-23T15:21:37;97717.63;;;23.69;70.31
39487;BME280;25173;50.430;18.926;2023-05-23T15:24:38;97716.03;;;23.94;70.19
39487;BME280;25173;50.430;18.926;2023-05-23T15:27:38;97717.88;;;24.10;66.83
39487;BME280;25173;50.430;18.926;2023-05-23T15:30:39;97719.13;;;24.12;64.80
39487;BME280;25173;50.430;18.926;2023-05-23T15:33:40;97726.22;;;23.83;62.97
39487;BME280;25173;50.430;18.926;2023-05-23T15:37:00;97731.16;;;23.48;64.29
39487;BME280;25173;50.430;18.926;2023-05-23T15:40:01;97745.13;;;23.32;65.05
39487;BME280;25173;50.430;18.926;2023-05-23T15:43:01;97742.59;;;23.27;64.74
39487;BME280;25173;50.430;18.926;2023-05-23T15:46:03;97734.75;;;23.10;65.03
39487;BME280;25173;50.430;18.926;2023-05-23T15:49:04;97733.50;;;22.88;64.81
39487;BME280;25173;50.430;18.926;2023-05-23T15:52:04;97738.38;;;22.75;65.44
39487;BME280;25173;50.430;18.926;2023-05-23T15:55:05;97743.03;;;22.71;65.31
39487;BME280;25173;50.430;18.926;2023-05-23T15:58:06;97735.81;;;22.67;65.45
39487;BME280;25173;50.430;18.926;2023-05-23T16:01:07;97728.75;;;22.54;65.59
39487;BME280;25173;50.430;18.926;2023-05-23T16:04:09;97736.13;;;22.46;66.46
39487;BME280;25173;50.430;18.926;2023-05-23T16:07:10;97743.13;;;22.40;66.26
39487;BME280;25173;50.430;18.926;2023-05-23T16:10:11;97744.13;;;22.32;66.56
39487;BME280;25173;50.430;18.926;2023-05-23T16:13:32;97743.25;;;22.28;66.76
39487;BME280;25173;50.430;18.926;2023-05-23T16:16:51;97734.03;;;22.24;66.92
39487;BME280;25173;50.430;18.926;2023-05-23T16:20:10;97744.25;;;22.20;66.96
39487;BME280;25173;50.430;18.926;2023-05-23T16:23:29;97737.72;;;22.12;66.98
39487;BME280;25173;50.430;18.926;2023-05-23T16:26:49;97735.25;;;22.07;67.32
39487;BME280;25173;50.430;18.926;2023-05-23T16:30:08;97740.34;;;22.05;67.46
39487;BME280;25173;50.430;18.926;2023-05-23T16:33:27;97736.03;;;22.08;67.40
39487;BME280;25173;50.430;18.926;2023-05-23T16:36:47;97736.84;;;22.08;67.47
39487;BME280;25173;50.430;18.926;2023-05-23T16:40:07;97731.66;;;22.06;67.74